createdAt,value
2019-03-05T00:00:49.032Z,98546.72
2019-03-05T00:01:54.256Z,98537.72
2019-03-05T00:02:56.496Z,98532.02
2019-03-05T00:03:58.727Z,98550.71
2019-03-05T00:05:01.272Z,98541.61
2019-03-05T00:06:03.468Z,98541.61
2019-03-05T00:07:05.674Z,98554.11
2019-03-05T00:08:07.888Z,98567.61
2019-03-05T00:09:11.958Z,98555.91
2019-03-05T00:10:14.212Z,98553.31
2019-03-05T00:11:16.419Z,98552.91
2019-03-05T00:12:20.392Z,98550.71
2019-03-05T00:13:22.592Z,98563.31
2019-03-05T00:14:24.799Z,98568.11
2019-03-05T00:15:27.822Z,98561.11
2019-03-05T00:16:30.028Z,98565.91
2019-03-05T00:17:32.260Z,98561.11
2019-03-05T00:18:34.465Z,98581.10
2019-03-05T00:19:36.682Z,98552.91
2019-03-05T00:20:38.910Z,98565.91
2019-03-05T00:21:41.126Z,98565.91
2019-03-05T00:22:43.353Z,98578.00
2019-03-05T00:23:45.583Z,98587.60
2019-03-05T00:24:47.850Z,98569.41
2019-03-05T00:25:50.037Z,98585.00
2019-03-05T00:26:52.243Z,98595.40
2019-03-05T00:27:54.462Z,98584.10
2019-03-05T00:28:56.659Z,98586.30
2019-03-05T00:29:58.890Z,98587.20
2019-03-05T00:31:01.096Z,98584.60
2019-03-05T00:32:03.294Z,98575.41
2019-03-05T00:33:05.504Z,98595.80
2019-03-05T00:34:07.816Z,98588.90
2019-03-05T00:35:10.054Z,98586.30
2019-03-05T00:36:12.269Z,98592.80
2019-03-05T00:37:14.464Z,98593.70
2019-03-05T00:38:16.828Z,98585.00
2019-03-05T00:39:19.073Z,98591.90
2019-03-05T00:40:21.313Z,98598.90
2019-03-05T00:41:25.315Z,98594.90
2019-03-05T00:42:27.486Z,98591.90
2019-03-05T00:43:29.710Z,98590.20
2019-03-05T00:44:35.057Z,98602.30
2019-03-05T00:45:37.299Z,98603.59
2019-03-05T00:46:39.510Z,98594.09
2019-03-05T00:47:41.802Z,98603.59
2019-03-05T00:48:47.275Z,98604.49
2019-03-05T00:49:49.493Z,98607.49
2019-03-05T00:50:51.734Z,98612.70
2019-03-05T00:51:53.931Z,98603.70
2019-03-05T00:52:56.159Z,98614.09
2019-03-05T00:54:00.335Z,98603.70
2019-03-05T00:55:02.207Z,98607.49
2019-03-05T00:56:04.438Z,98615.79
2019-03-05T00:57:06.655Z,98614.89
2019-03-05T00:58:08.871Z,98614.89
2019-03-05T00:59:11.059Z,98619.69
2019-03-05T01:00:13.362Z,98613.59
2019-03-05T01:01:15.997Z,98617.49
2019-03-05T01:02:18.216Z,98633.09
2019-03-05T01:03:20.417Z,98627.09
2019-03-05T01:04:25.515Z,98625.79
2019-03-05T01:05:27.968Z,98621.39
2019-03-05T01:06:30.178Z,98627.89
2019-03-05T01:07:32.366Z,98623.09
2019-03-05T01:08:34.575Z,98634.39
2019-03-05T01:09:36.761Z,98619.69
2019-03-05T01:10:38.971Z,98630.09
2019-03-05T01:11:42.986Z,98635.69
2019-03-05T01:12:45.103Z,98645.28
2019-03-05T01:13:47.309Z,98639.19
2019-03-05T01:14:51.093Z,98647.88
2019-03-05T01:15:53.294Z,98649.19
2019-03-05T01:16:55.534Z,98647.48
2019-03-05T01:17:57.743Z,98653.48
2019-03-05T01:18:59.947Z,98649.19
2019-03-05T01:20:02.153Z,98647.88
2019-03-05T01:21:04.353Z,98662.68
2019-03-05T01:22:06.586Z,98650.08
2019-03-05T01:23:08.799Z,98662.18
2019-03-05T01:24:11.007Z,98666.08
2019-03-05T01:25:13.207Z,98680.38
2019-03-05T01:26:15.511Z,98666.48
2019-03-05T01:27:17.739Z,98682.17
2019-03-05T01:28:19.947Z,98666.87
2019-03-05T01:29:22.151Z,98670.78
2019-03-05T01:30:24.345Z,98675.17
2019-03-05T01:31:54.543Z,98680.88
2019-03-05T01:33:04.069Z,98676.48
2019-03-05T01:34:10.708Z,98686.48
2019-03-05T01:35:31.956Z,98674.78
2019-03-05T01:36:36.843Z,98663.48
2019-03-05T01:37:39.047Z,98669.98
2019-03-05T01:39:00.245Z,98683.77
2019-03-05T01:40:33.487Z,98688.17
2019-03-05T01:41:35.681Z,98666.87
2019-03-05T01:42:37.983Z,98682.98
2019-03-05T01:43:40.203Z,98694.67
2019-03-05T01:44:42.412Z,98693.77
2019-03-05T01:45:44.619Z,98691.17
2019-03-05T01:46:46.830Z,98695.07
2019-03-05T01:47:49.025Z,98693.77
2019-03-05T01:48:51.245Z,98697.67
2019-03-05T01:49:53.451Z,98696.88
2019-03-05T01:50:55.651Z,98696.38
2019-03-05T01:51:57.843Z,98705.07
2019-03-05T01:53:00.035Z,98706.77
2019-03-05T01:54:02.241Z,98702.97
2019-03-05T01:55:06.919Z,98701.27
2019-03-05T01:56:09.118Z,98716.77
2019-03-05T01:57:11.331Z,98717.67
2019-03-05T01:58:13.543Z,98715.47
2019-03-05T01:59:15.775Z,98716.37
2019-03-05T02:00:17.982Z,98717.27
2019-03-05T02:01:20.189Z,98721.17
2019-03-05T02:02:22.389Z,98720.27
2019-03-05T02:03:24.599Z,98715.47
2019-03-05T02:04:26.821Z,98719.37
2019-03-05T02:05:29.018Z,98721.56
2019-03-05T02:06:31.217Z,98725.47
2019-03-05T02:07:33.419Z,98723.66
2019-03-05T02:08:35.617Z,98723.37
2019-03-05T02:09:37.871Z,98738.97
2019-03-05T02:10:40.061Z,98724.97
2019-03-05T02:11:42.283Z,98723.27
2019-03-05T02:12:44.479Z,98727.56
2019-03-05T02:13:46.689Z,98732.36
2019-03-05T02:14:48.918Z,98739.77
2019-03-05T02:15:51.121Z,98734.97
2019-03-05T02:16:53.323Z,98743.66
2019-03-05T02:17:55.542Z,98747.96
2019-03-05T02:18:57.747Z,98741.86
2019-03-05T02:19:59.956Z,98747.56
2019-03-05T02:21:02.163Z,98744.06
2019-03-05T02:22:04.399Z,98754.46
2019-03-05T02:23:06.599Z,98749.16
2019-03-05T02:24:08.803Z,98749.66
2019-03-05T02:25:11.053Z,98750.16
2019-03-05T02:26:13.256Z,98746.27
2019-03-05T02:27:15.467Z,98749.27
2019-03-05T02:28:17.655Z,98747.96
2019-03-05T02:29:19.875Z,98749.27
2019-03-05T02:30:22.118Z,98749.66
2019-03-05T02:31:24.547Z,98753.95
2019-03-05T02:32:26.763Z,98750.96
2019-03-05T02:33:28.966Z,98751.86
2019-03-05T02:34:31.164Z,98752.26
2019-03-05T02:35:33.405Z,98759.66
2019-03-05T02:36:35.627Z,98760.96
2019-03-05T02:37:39.542Z,98756.16
2019-03-05T02:38:41.737Z,98762.66
2019-03-05T02:39:43.951Z,98761.86
2019-03-05T02:40:46.188Z,98763.55
2019-03-05T02:41:48.397Z,98765.26
2019-03-05T02:42:50.600Z,98757.96
2019-03-05T02:43:52.798Z,98762.26
2019-03-05T02:44:55.019Z,98764.86
2019-03-05T02:45:57.270Z,98756.56
2019-03-05T02:46:59.481Z,98757.06
2019-03-05T02:48:01.694Z,98759.16
2019-03-05T02:49:03.902Z,98762.66
2019-03-05T02:50:06.116Z,98760.96
2019-03-05T02:51:08.359Z,98759.26
2019-03-05T02:52:10.659Z,98768.36
2019-03-05T02:53:12.866Z,98773.05
2019-03-05T02:54:15.072Z,98771.36
2019-03-05T02:55:17.276Z,98763.95
2019-03-05T02:56:19.519Z,98770.45
2019-03-05T02:57:21.730Z,98773.95
2019-03-05T02:58:23.951Z,98772.66
2019-03-05T02:59:26.158Z,98769.55
2019-03-05T03:00:47.023Z,98768.25
2019-03-05T03:02:14.364Z,98772.16
2019-03-05T03:03:35.527Z,98778.25
2019-03-05T03:04:41.028Z,98777.86
2019-03-05T03:05:52.160Z,98778.25
2019-03-05T03:06:54.390Z,98782.55
2019-03-05T03:07:56.596Z,98780.05
2019-03-05T03:08:58.902Z,98770.45
2019-03-05T03:10:01.091Z,98779.95
2019-03-05T03:11:03.297Z,98776.05
2019-03-05T03:12:07.215Z,98775.16
2019-03-05T03:13:09.410Z,98785.55
2019-03-05T03:14:11.621Z,98792.05
2019-03-05T03:15:13.806Z,98773.85
2019-03-05T03:16:17.874Z,98778.66
2019-03-05T03:17:20.093Z,98778.66
2019-03-05T03:18:22.286Z,98778.66
2019-03-05T03:19:24.488Z,98775.66
2019-03-05T03:20:26.692Z,98776.45
2019-03-05T03:21:28.908Z,98776.05
2019-03-05T03:22:31.142Z,98783.45
2019-03-05T03:23:33.365Z,98777.75
2019-03-05T03:24:36.770Z,98793.34
2019-03-05T03:25:38.940Z,98794.25
2019-03-05T03:26:41.158Z,98792.95
2019-03-05T03:27:43.390Z,98799.45
2019-03-05T03:28:45.602Z,98793.34
2019-03-05T03:29:47.810Z,98792.55
2019-03-05T03:30:50.033Z,98799.45
2019-03-05T03:31:52.222Z,98800.34
2019-03-05T03:32:54.448Z,98795.66
2019-03-05T03:33:56.641Z,98792.05
2019-03-05T03:34:58.851Z,98802.55
2019-03-05T03:36:01.049Z,98799.05
2019-03-05T03:37:03.252Z,98817.25
2019-03-05T03:38:05.495Z,98802.05
2019-03-05T03:39:07.689Z,98801.65
2019-03-05T03:40:09.987Z,98803.34
2019-03-05T03:41:12.304Z,98803.34
2019-03-05T03:42:14.506Z,98794.75
2019-03-05T03:43:16.721Z,98803.34
2019-03-05T03:44:18.929Z,98811.14
2019-03-05T03:45:21.111Z,98810.75
2019-03-05T03:46:23.323Z,98814.14
2019-03-05T03:47:25.530Z,98815.05
2019-03-05T03:48:29.307Z,98818.94
2019-03-05T03:49:31.511Z,98823.34
2019-03-05T03:50:33.706Z,98823.74
2019-03-05T03:51:35.908Z,98821.14
2019-03-05T03:52:38.107Z,98830.24
2019-03-05T03:53:40.331Z,98822.84
2019-03-05T03:54:42.538Z,98834.54
2019-03-05T03:55:44.746Z,98820.25
2019-03-05T03:56:46.940Z,98828.94
2019-03-05T03:57:49.144Z,98831.54
2019-03-05T03:58:51.370Z,98832.84
2019-03-05T03:59:53.580Z,98835.44
2019-03-05T04:00:55.805Z,98841.55
2019-03-05T04:01:58.015Z,98825.05
2019-03-05T04:03:00.219Z,98839.73
2019-03-05T04:04:02.419Z,98838.04
2019-03-05T04:05:04.627Z,98838.94
2019-03-05T04:06:06.950Z,98821.55
2019-03-05T04:07:09.172Z,98844.54
2019-03-05T04:08:11.348Z,98839.73
2019-03-05T04:09:13.571Z,98833.24
2019-03-05T04:10:15.769Z,98840.24
2019-03-05T04:11:17.969Z,98844.54
2019-03-05T04:12:20.162Z,98853.23
2019-03-05T04:13:22.375Z,98854.94
2019-03-05T04:14:24.694Z,98852.34
2019-03-05T04:15:26.897Z,98854.54
2019-03-05T04:16:29.095Z,98852.34
2019-03-05T04:17:31.302Z,98854.03
2019-03-05T04:18:33.789Z,98851.94
2019-03-05T04:19:36.298Z,98863.23
2019-03-05T04:20:56.422Z,98854.54
2019-03-05T04:21:58.620Z,98846.73
2019-03-05T04:23:01.107Z,98856.23
2019-03-05T04:24:03.290Z,98858.44
2019-03-05T04:25:05.514Z,98856.23
2019-03-05T04:26:07.725Z,98855.84
2019-03-05T04:27:09.921Z,98852.73
2019-03-05T04:28:12.115Z,98861.44
2019-03-05T04:29:14.351Z,98864.03
2019-03-05T04:30:16.612Z,98870.03
2019-03-05T04:31:18.813Z,98862.73
2019-03-05T04:32:23.722Z,98859.23
2019-03-05T04:33:24.853Z,98869.23
2019-03-05T04:34:27.063Z,98860.94
2019-03-05T04:35:29.288Z,98870.94
2019-03-05T04:36:31.487Z,98869.63
2019-03-05T04:37:33.707Z,98865.73
2019-03-05T04:38:35.907Z,98876.12
2019-03-05T04:39:38.110Z,98880.53
2019-03-05T04:40:40.337Z,98875.73
2019-03-05T04:41:42.527Z,98877.44
2019-03-05T04:42:44.721Z,98876.12
2019-03-05T04:43:47.225Z,98879.13
2019-03-05T04:45:09.436Z,98880.53
2019-03-05T04:46:30.643Z,98886.13
2019-03-05T04:47:32.847Z,98886.53
2019-03-05T04:48:35.076Z,98895.23
2019-03-05T04:49:51.097Z,98895.23
2019-03-05T04:51:01.775Z,98896.53
2019-03-05T04:52:10.949Z,98900.03
2019-03-05T04:53:13.173Z,98894.33
2019-03-05T04:54:15.371Z,98887.43
2019-03-05T04:55:17.571Z,98900.43
2019-03-05T04:56:19.981Z,98903.42
2019-03-05T04:57:22.224Z,98899.92
2019-03-05T04:58:24.419Z,98908.23
2019-03-05T04:59:29.431Z,98907.33
2019-03-05T05:00:31.650Z,98900.43
2019-03-05T05:01:33.868Z,98901.73
2019-03-05T05:02:36.091Z,98904.73
2019-03-05T05:03:38.304Z,98903.03
2019-03-05T05:04:40.643Z,98906.92
2019-03-05T05:05:42.749Z,98909.02
2019-03-05T05:06:44.957Z,98917.33
2019-03-05T05:07:47.209Z,98923.83
2019-03-05T05:08:49.488Z,98911.63
2019-03-05T05:09:51.693Z,98917.72
2019-03-05T05:10:53.891Z,98923.32
2019-03-05T05:11:56.135Z,98934.63
2019-03-05T05:12:58.386Z,98932.92
2019-03-05T05:14:00.584Z,98911.12
2019-03-05T05:15:02.792Z,98930.72
2019-03-05T05:16:05.011Z,98929.82
2019-03-05T05:17:07.309Z,98928.52
2019-03-05T05:18:11.734Z,98935.92
2019-03-05T05:19:13.901Z,98924.22
2019-03-05T05:20:16.120Z,98933.32
2019-03-05T05:21:18.330Z,98930.72
2019-03-05T05:22:20.569Z,98935.92
2019-03-05T05:23:22.783Z,98939.42
2019-03-05T05:24:25.004Z,98939.42
2019-03-05T05:25:27.217Z,98938.02
2019-03-05T05:26:29.434Z,98939.82
2019-03-05T05:27:31.645Z,98945.02
2019-03-05T05:28:33.888Z,98944.63
2019-03-05T05:29:36.089Z,98955.02
2019-03-05T05:30:38.288Z,98947.22
2019-03-05T05:31:40.499Z,98953.72
2019-03-05T05:32:42.695Z,98953.72
2019-03-05T05:33:44.912Z,98956.32
2019-03-05T05:34:47.116Z,98953.33
2019-03-05T05:35:49.322Z,98966.32
2019-03-05T05:36:51.526Z,98957.62
2019-03-05T05:37:53.730Z,98973.22
2019-03-05T05:38:55.960Z,98965.42
2019-03-05T05:39:58.169Z,98975.81
2019-03-05T05:41:00.497Z,98972.82
2019-03-05T05:42:02.692Z,98968.41
2019-03-05T05:43:04.906Z,98971.52
2019-03-05T05:44:07.136Z,98976.32
2019-03-05T05:45:09.332Z,98970.22
2019-03-05T05:46:11.636Z,98980.51
2019-03-05T05:47:13.852Z,98970.22
2019-03-05T05:48:16.246Z,98980.62
2019-03-05T05:49:18.491Z,98986.72
2019-03-05T05:50:20.686Z,98987.52
2019-03-05T05:51:22.886Z,98984.41
2019-03-05T05:52:25.090Z,98990.52
2019-03-05T05:53:27.385Z,98989.72
2019-03-05T05:54:29.636Z,98987.12
2019-03-05T05:55:31.832Z,98994.52
2019-03-05T05:56:34.046Z,98998.92
2019-03-05T05:57:36.259Z,99001.52
2019-03-05T05:58:38.777Z,99001.52
2019-03-05T05:59:41.016Z,98991.52
2019-03-05T06:00:48.588Z,99001.13
2019-03-05T06:01:50.790Z,98999.83
2019-03-05T06:02:53.003Z,98999.83
2019-03-05T06:03:55.212Z,99010.33
2019-03-05T06:04:57.444Z,99006.83
2019-03-05T06:05:59.670Z,99007.73
2019-03-05T06:07:01.860Z,99008.53
2019-03-05T06:08:04.060Z,99013.73
2019-03-05T06:09:06.268Z,99018.53
2019-03-05T06:10:08.495Z,99011.13
2019-03-05T06:11:12.625Z,99015.53
2019-03-05T06:12:14.690Z,99017.23
2019-03-05T06:13:16.916Z,99018.02
2019-03-05T06:14:19.129Z,99017.23
2019-03-05T06:15:21.361Z,99017.63
2019-03-05T06:16:23.567Z,99016.33
2019-03-05T06:17:25.758Z,99024.02
2019-03-05T06:18:27.974Z,99027.13
2019-03-05T06:19:30.178Z,99025.83
2019-03-05T06:20:32.424Z,99023.62
2019-03-05T06:21:34.624Z,99032.72
2019-03-05T06:22:36.838Z,99028.42
2019-03-05T06:23:40.618Z,99034.02
2019-03-05T06:24:42.820Z,99031.42
2019-03-05T06:25:45.062Z,99025.42
2019-03-05T06:26:47.271Z,99037.92
2019-03-05T06:27:49.488Z,99041.31
2019-03-05T06:28:51.682Z,99045.21
2019-03-05T06:29:55.660Z,99045.21
2019-03-05T06:30:57.906Z,99039.11
2019-03-05T06:32:00.073Z,99040.80
2019-03-05T06:33:02.274Z,99046.51
2019-03-05T06:34:04.489Z,99044.70
2019-03-05T06:35:06.694Z,99054.31
2019-03-05T06:36:08.899Z,99054.31
2019-03-05T06:37:11.118Z,99056.01
2019-03-05T06:38:13.318Z,99059.40
2019-03-05T06:39:15.514Z,99061.60
2019-03-05T06:40:17.810Z,99064.20
2019-03-05T06:41:20.056Z,99068.50
2019-03-05T06:42:22.264Z,99061.60
2019-03-05T06:43:24.454Z,99057.30
2019-03-05T06:44:26.662Z,99069.40
2019-03-05T06:45:28.885Z,99070.30
2019-03-05T06:46:31.109Z,99065.90
2019-03-05T06:47:33.289Z,99065.50
2019-03-05T06:48:35.479Z,99073.70
2019-03-05T06:49:37.767Z,99075.00
2019-03-05T06:50:39.921Z,99063.30
2019-03-05T06:51:42.131Z,99068.89
2019-03-05T06:52:44.348Z,99073.30
2019-03-05T06:53:46.553Z,99071.09
2019-03-05T06:54:48.769Z,99068.50
2019-03-05T06:55:50.946Z,99073.70
2019-03-05T06:56:53.192Z,99074.09
2019-03-05T06:57:55.390Z,99067.20
2019-03-05T06:58:57.591Z,99071.09
2019-03-05T06:59:59.845Z,99069.80
2019-03-05T07:01:02.040Z,99079.41
2019-03-05T07:02:04.296Z,99072.00
2019-03-05T07:03:06.514Z,99073.81
2019-03-05T07:04:08.779Z,99077.59
2019-03-05T07:05:10.999Z,99080.20
2019-03-05T07:06:13.205Z,99081.10
2019-03-05T07:07:15.451Z,99077.20
2019-03-05T07:08:17.641Z,99077.20
2019-03-05T07:09:19.848Z,99077.59
2019-03-05T07:10:22.061Z,99087.59
2019-03-05T07:11:24.494Z,99082.00
2019-03-05T07:12:26.723Z,99090.20
2019-03-05T07:13:28.923Z,99092.41
2019-03-05T07:14:31.150Z,99090.20
2019-03-05T07:15:33.374Z,99088.50
2019-03-05T07:16:35.578Z,99090.20
2019-03-05T07:17:37.829Z,99092.80
2019-03-05T07:18:40.035Z,99087.99
2019-03-05T07:19:42.235Z,99100.59
2019-03-05T07:20:44.743Z,99101.50
2019-03-05T07:21:46.941Z,99105.29
2019-03-05T07:22:49.177Z,99097.48
2019-03-05T07:23:52.919Z,99107.89
2019-03-05T07:24:55.192Z,99105.29
2019-03-05T07:25:57.393Z,99098.79
2019-03-05T07:26:59.593Z,99102.69
2019-03-05T07:28:01.840Z,99107.89
2019-03-05T07:29:04.070Z,99106.98
2019-03-05T07:30:06.308Z,99098.68
2019-03-05T07:31:08.500Z,99103.48
2019-03-05T07:32:10.713Z,99105.29
2019-03-05T07:33:12.949Z,99106.98
2019-03-05T07:34:21.863Z,99108.28
2019-03-05T07:35:25.774Z,99118.69
2019-03-05T07:36:27.971Z,99116.98
2019-03-05T07:37:30.187Z,99125.69
2019-03-05T07:38:32.399Z,99119.98
2019-03-05T07:39:34.616Z,99121.28
2019-03-05T07:40:36.835Z,99114.39
2019-03-05T07:41:39.040Z,99119.98
2019-03-05T07:42:41.257Z,99127.39
2019-03-05T07:43:43.475Z,99124.78
2019-03-05T07:44:45.710Z,99127.39
2019-03-05T07:45:47.911Z,99129.59
2019-03-05T07:46:50.128Z,99134.79
2019-03-05T07:47:52.336Z,99130.49
2019-03-05T07:48:54.546Z,99134.39
2019-03-05T07:49:56.740Z,99139.20
2019-03-05T07:50:58.986Z,99135.30
2019-03-05T07:52:01.183Z,99140.89
2019-03-05T07:53:03.461Z,99136.98
2019-03-05T07:54:05.691Z,99151.41
2019-03-05T07:55:13.715Z,99146.99
2019-03-05T07:56:11.761Z,99149.09
2019-03-05T07:57:13.984Z,99155.58
2019-03-05T07:58:16.293Z,99159.88
2019-03-05T07:59:18.495Z,99159.88
2019-03-05T08:00:20.698Z,99164.69
2019-03-05T08:01:22.916Z,99164.17
2019-03-05T08:02:25.138Z,99158.58
2019-03-05T08:03:27.411Z,99162.48
2019-03-05T08:04:32.631Z,99167.28
2019-03-05T08:05:34.840Z,99157.67
2019-03-05T08:06:37.044Z,99164.17
2019-03-05T08:07:39.270Z,99167.68
2019-03-05T08:08:41.489Z,99161.97
2019-03-05T08:09:43.697Z,99164.57
2019-03-05T08:10:45.919Z,99165.88
2019-03-05T08:11:48.133Z,99170.16
2019-03-05T08:12:50.334Z,99164.06
2019-03-05T08:13:52.572Z,99173.55
2019-03-05T08:14:54.772Z,99181.87
2019-03-05T08:16:09.763Z,99167.56
2019-03-05T08:17:12.050Z,99185.37
2019-03-05T08:18:14.179Z,99177.06
2019-03-05T08:19:16.421Z,99184.47
2019-03-05T08:20:18.630Z,99177.06
2019-03-05T08:21:20.825Z,99196.55
2019-03-05T08:22:23.030Z,99190.97
2019-03-05T08:23:25.342Z,99189.16
2019-03-05T08:25:50.412Z,99192.03
2019-03-05T08:26:52.634Z,99192.55
2019-03-05T08:27:54.856Z,99194.23
2019-03-05T08:29:03.108Z,99196.05
2019-03-05T08:30:13.685Z,99197.75
2019-03-05T08:31:09.431Z,99193.84
2019-03-05T08:32:13.351Z,99202.44
2019-03-05T08:33:15.552Z,99199.84
2019-03-05T08:34:17.870Z,99202.94
2019-03-05T08:35:20.100Z,99199.05
2019-03-05T08:36:22.377Z,99210.23
2019-03-05T08:37:24.708Z,99211.25
2019-03-05T08:38:26.922Z,99206.05
2019-03-05T08:39:29.124Z,99210.34
2019-03-05T08:40:31.340Z,99209.84
2019-03-05T08:41:33.544Z,99212.44
2019-03-05T08:42:35.742Z,99226.34
2019-03-05T08:43:37.948Z,99212.95
2019-03-05T08:44:49.947Z,99222.44
2019-03-05T08:45:44.042Z,99222.44
2019-03-05T08:46:46.254Z,99229.84
2019-03-05T08:47:48.578Z,99237.64
2019-03-05T08:48:50.775Z,99228.43
2019-03-05T08:49:53.120Z,99245.33
2019-03-05T08:50:55.334Z,99243.23
2019-03-05T08:51:57.546Z,99235.95
2019-03-05T08:52:59.782Z,99237.25
2019-03-05T08:54:01.987Z,99240.36
2019-03-05T08:55:04.211Z,99248.66
2019-03-05T08:56:06.401Z,99242.16
2019-03-05T08:57:11.305Z,99247.36
2019-03-05T08:58:15.423Z,99246.06
2019-03-05T08:59:17.359Z,99245.16
2019-03-05T09:00:19.573Z,99250.48
2019-03-05T09:01:21.792Z,99253.47
2019-03-05T09:02:24.000Z,99250.48
2019-03-05T09:03:26.209Z,99257.99
2019-03-05T09:04:28.532Z,99254.88
2019-03-05T09:05:30.751Z,99254.88
2019-03-05T09:06:32.960Z,99254.88
2019-03-05T09:07:35.160Z,99258.27
2019-03-05T09:08:38.495Z,99258.67
2019-03-05T09:09:40.883Z,99259.45
2019-03-05T09:10:45.812Z,99267.66
2019-03-05T09:11:48.008Z,99265.84
2019-03-05T09:12:53.295Z,99268.44
2019-03-05T09:13:55.488Z,99268.05
2019-03-05T09:14:57.780Z,99269.97
2019-03-05T09:15:59.998Z,99272.97
2019-03-05T09:17:02.290Z,99279.97
2019-03-05T09:18:04.494Z,99276.98
2019-03-05T09:19:06.698Z,99266.47
2019-03-05T09:20:08.972Z,99278.95
2019-03-05T09:21:11.130Z,99276.75
2019-03-05T09:22:13.395Z,99278.45
2019-03-05T09:23:15.594Z,99283.25
2019-03-05T09:24:17.783Z,99282.34
2019-03-05T09:25:20.032Z,99278.45
2019-03-05T09:26:22.257Z,99281.44
2019-03-05T09:27:24.465Z,99284.95
2019-03-05T09:28:26.679Z,99272.73
2019-03-05T09:29:28.888Z,99284.95
2019-03-05T09:30:31.120Z,99275.45
2019-03-05T09:31:33.323Z,99283.98
2019-03-05T09:32:35.524Z,99291.12
2019-03-05T09:33:37.731Z,99285.92
2019-03-05T09:34:39.931Z,99296.83
2019-03-05T09:35:42.143Z,99294.61
2019-03-05T09:38:10.288Z,99305.52
2019-03-05T09:39:12.491Z,99298.73
2019-03-05T09:40:14.748Z,99298.85
2019-03-05T09:41:16.910Z,99307.95
2019-03-05T09:42:19.134Z,99300.03
2019-03-05T09:43:21.343Z,99304.84
2019-03-05T09:44:23.550Z,99305.41
2019-03-05T09:45:28.076Z,99300.87
2019-03-05T09:46:29.639Z,99310.38
2019-03-05T09:47:31.839Z,99310.22
2019-03-05T09:48:34.054Z,99310.77
2019-03-05T09:49:36.235Z,99311.41
2019-03-05T09:50:38.766Z,99309.20
2019-03-05T09:51:41.153Z,99310.78
2019-03-05T09:52:54.193Z,99301.68
2019-03-05T09:53:47.232Z,99318.97
2019-03-05T09:54:49.444Z,99313.77
2019-03-05T09:55:51.775Z,99317.95
2019-03-05T09:56:53.989Z,99317.84
2019-03-05T09:58:06.888Z,99323.15
2019-03-05T09:59:00.070Z,99327.17
2019-03-05T10:00:02.259Z,99318.46
2019-03-05T10:01:04.491Z,99324.05
2019-03-05T10:02:06.901Z,99329.25
2019-03-05T10:03:09.112Z,99330.55
2019-03-05T10:04:11.317Z,99325.98
2019-03-05T10:05:13.537Z,99325.47
2019-03-05T10:06:18.600Z,99322.87
2019-03-05T10:07:21.258Z,99327.91
2019-03-05T10:08:31.924Z,99330.00
2019-03-05T10:09:27.900Z,99329.60
2019-03-05T10:10:30.734Z,99333.90
2019-03-05T10:11:33.646Z,99330.11
2019-03-05T10:12:36.071Z,99333.90
2019-03-05T10:13:38.742Z,99336.38
2019-03-05T10:14:41.342Z,99344.45
2019-03-05T10:15:43.869Z,99347.30
2019-03-05T10:16:46.483Z,99347.17
2019-03-05T10:17:50.137Z,99343.67
2019-03-05T10:18:52.920Z,99345.09
2019-03-05T10:19:55.623Z,99332.47
2019-03-05T10:20:58.343Z,99336.88
2019-03-05T10:22:01.015Z,99345.94
2019-03-05T10:23:03.623Z,99348.14
2019-03-05T10:24:10.433Z,99343.22
2019-03-05T10:25:12.771Z,99345.98
2019-03-05T10:26:14.455Z,99351.58
2019-03-05T10:27:17.072Z,99359.77
2019-03-05T10:28:19.490Z,99353.91
2019-03-05T10:29:22.182Z,99360.91
2019-03-05T10:30:25.375Z,99356.73
2019-03-05T10:31:28.216Z,99367.53
2019-03-05T10:32:31.093Z,99360.00
2019-03-05T10:33:33.756Z,99370.02
2019-03-05T10:34:36.835Z,99372.39
2019-03-05T10:35:41.486Z,99363.41
2019-03-05T10:36:43.914Z,99370.30
2019-03-05T10:37:46.585Z,99370.58
2019-03-05T10:38:56.830Z,99382.67
2019-03-05T10:39:53.355Z,99373.41
2019-03-05T10:40:55.787Z,99375.89
2019-03-05T10:41:58.490Z,99377.47
2019-03-05T10:43:08.403Z,99385.15
2019-03-05T10:44:04.541Z,99381.77
2019-03-05T10:45:06.748Z,99384.32
2019-03-05T10:46:08.961Z,99385.50
2019-03-05T10:47:11.204Z,99386.02
2019-03-05T10:48:14.405Z,99386.69
2019-03-05T10:49:16.621Z,99389.95
2019-03-05T10:50:18.827Z,99383.34
2019-03-05T10:51:21.080Z,99398.15
2019-03-05T10:52:23.295Z,99388.88
2019-03-05T10:53:25.484Z,99394.20
2019-03-05T10:54:27.715Z,99401.61
2019-03-05T10:55:29.924Z,99400.55
2019-03-05T10:56:32.150Z,99403.14
2019-03-05T10:57:34.386Z,99405.27
2019-03-05T10:58:36.545Z,99408.91
2019-03-05T10:59:38.751Z,99412.56
2019-03-05T11:00:40.965Z,99408.39
2019-03-05T11:01:43.186Z,99407.88
2019-03-05T11:02:45.402Z,99406.02
2019-03-05T11:03:47.615Z,99413.50
2019-03-05T11:04:52.254Z,99411.69
2019-03-05T11:05:53.670Z,99422.48
2019-03-05T11:06:55.891Z,99421.69
2019-03-05T11:07:58.084Z,99421.92
2019-03-05T11:09:00.291Z,99423.34
2019-03-05T11:10:02.496Z,99419.72
2019-03-05T11:11:12.958Z,99413.61
2019-03-05T11:12:08.782Z,99417.36
2019-03-05T11:13:10.996Z,99415.53
2019-03-05T11:14:13.314Z,99420.34
2019-03-05T11:15:15.533Z,99425.16
2019-03-05T11:16:30.150Z,99422.59
2019-03-05T11:17:23.786Z,99427.97
2019-03-05T11:18:29.645Z,99431.63
2019-03-05T11:19:31.206Z,99420.33
2019-03-05T11:20:35.122Z,99433.09
2019-03-05T11:21:37.349Z,99435.97
2019-03-05T11:22:39.556Z,99440.38
2019-03-05T11:23:41.755Z,99435.53
2019-03-05T11:24:44.070Z,99439.78
2019-03-05T11:25:46.496Z,99439.78
2019-03-05T11:26:48.702Z,99436.31
2019-03-05T11:27:50.896Z,99439.55
2019-03-05T11:28:54.736Z,99442.03
2019-03-05T11:30:01.036Z,99451.02
2019-03-05T11:31:03.334Z,99450.73
2019-03-05T11:32:05.534Z,99448.25
2019-03-05T11:33:07.754Z,99453.89
2019-03-05T11:34:09.960Z,99460.91
2019-03-05T11:35:12.168Z,99469.48
2019-03-05T11:36:14.420Z,99464.53
2019-03-05T11:37:16.629Z,99467.13
2019-03-05T11:38:18.822Z,99463.11
2019-03-05T11:39:21.021Z,99465.08
2019-03-05T11:40:23.224Z,99473.39
2019-03-05T11:41:25.418Z,99472.33
2019-03-05T11:42:27.634Z,99469.37
2019-03-05T11:43:29.833Z,99470.64
2019-03-05T11:44:32.615Z,99468.19
2019-03-05T11:45:34.834Z,99475.87
2019-03-05T11:46:39.517Z,99481.31
2019-03-05T11:47:41.738Z,99479.61
2019-03-05T11:48:44.074Z,99488.08
2019-03-05T11:49:46.290Z,99495.19
2019-03-05T11:50:48.494Z,99483.48
2019-03-05T11:51:50.766Z,99488.53
2019-03-05T11:52:52.996Z,99494.12
2019-03-05T11:53:55.218Z,99484.11
2019-03-05T11:54:57.479Z,99492.42
2019-03-05T11:55:59.621Z,99491.91
2019-03-05T11:57:01.882Z,99487.62
2019-03-05T11:58:04.216Z,99502.47
2019-03-05T11:59:06.477Z,99507.00
2019-03-05T12:00:08.905Z,99490.22
2019-03-05T12:01:20.414Z,99501.65
2019-03-05T12:02:22.666Z,99508.55
2019-03-05T12:03:24.874Z,99496.05
2019-03-05T12:04:27.064Z,99498.26
2019-03-05T12:05:29.279Z,99512.17
2019-03-05T12:06:31.474Z,99513.20
2019-03-05T12:07:33.704Z,99513.71
2019-03-05T12:08:35.897Z,99518.13
2019-03-05T12:09:38.182Z,99527.63
2019-03-05T12:10:40.397Z,99519.70
2019-03-05T12:11:42.748Z,99525.41
2019-03-05T12:12:44.996Z,99517.49
2019-03-05T12:13:47.302Z,99520.37
2019-03-05T12:14:49.506Z,99520.41
2019-03-05T12:15:51.701Z,99529.89
2019-03-05T12:16:53.919Z,99534.58
2019-03-05T12:17:56.131Z,99543.33
2019-03-05T12:18:58.647Z,99533.31
2019-03-05T12:20:00.850Z,99537.33
2019-03-05T12:21:06.832Z,99532.01